首页
METAR-TAF:

METAR-TAF

机场 :

布朗斯维克, 喬治亞, 美国

纬度: 31-15N, 经度: 081-28W, 海拔: 8米

当前天气观测

该预报发布于6分钟前的00:35 UTC
静风
温度 21°C
湿度 100%
气压 1016 hPa
能見度: 16.1公里
散云层高于1600英尺
散云层高于2000英尺
阴天层高于11000英尺

METAR: KBQK 160035Z AUTO 00000KT 10SM SCT016 SCT020 OVC110 21/21 A2999 RMK AO2 T02150211

时间: 20:41 (00:41 UTC)


TAF: 丢失

超过4000个机场的气象观测和天气预报(METAR&TAF报告)。

可查询的气象台以黄色和红色小点在地图上表示。

将鼠标移到小点上方,可查看气象台名称。

然后点击查看天气观测和预报。

如需切换地图:点击带黑十字的绿色按钮放大地图;点击带横线的绿色按钮缩小地图;或者点击绿色箭头查看邻近地区的地图。


METAR-TAF: